Time;durP1;ratioP1;P1;durP2;ratioP2;P2;SDS_P1;SDS_P2;PMS_P1;PMS_P2;Temp;Humidity;BMP_temperature;BMP_pressure;BME280_temperature;BME280_humidity;BME280_pressure;Samples;Min_cycle;Max_cycle;Signal;HPM_P1;HPM_P2
2022/04/07 00:00:48;;;;;;;13.98;10.30;;;8.30;91.70;;;;;;5093962;28;20031;-84
2022/04/07 00:03:14;;;;;;;10.70;8.77;;;8.40;91.50;;;;;;5092709;28;20028;-84
2022/04/07 00:05:40;;;;;;;14.10;9.45;;;8.40;91.50;;;;;;5092767;28;20020;-83
2022/04/07 00:08:06;;;;;;;14.27;9.75;;;8.30;91.70;;;;;;5093414;28;20028;-82
2022/04/07 00:10:35;;;;;;;11.75;8.88;;;8.30;91.80;;;;;;5092065;28;20048;-83
2022/04/07 00:13:01;;;;;;;16.35;9.40;;;8.30;91.90;;;;;;5093730;28;20026;-83
2022/04/07 00:15:27;;;;;;;12.43;9.27;;;8.30;91.90;;;;;;5093980;28;20028;-84
2022/04/07 00:17:53;;;;;;;15.10;10.35;;;8.30;92.00;;;;;;5093543;28;20378;-84
2022/04/07 00:20:18;;;;;;;14.45;9.63;;;8.30;92.00;;;;;;5092561;28;20031;-83
2022/04/07 00:22:44;;;;;;;14.63;9.88;;;8.30;92.10;;;;;;5092365;28;20028;-83
2022/04/07 00:25:10;;;;;;;13.00;8.32;;;8.30;92.10;;;;;;5092444;28;20028;-84
2022/04/07 00:27:36;;;;;;;13.73;10.10;;;8.30;92.20;;;;;;5088574;28;20036;-83
2022/04/07 00:30:03;;;;;;;13.30;10.00;;;8.30;92.30;;;;;;5072260;28;20078;-84
2022/04/07 00:32:29;;;;;;;14.43;10.27;;;8.40;92.20;;;;;;5075074;28;20032;-85
2022/04/07 00:34:56;;;;;;;14.20;10.10;;;8.30;92.30;;;;;;5076482;28;20040;-84
2022/04/07 00:37:23;;;;;;;14.68;9.90;;;8.30;92.30;;;;;;5077378;28;20017;-85
2022/04/07 00:39:50;;;;;;;15.00;10.15;;;8.40;92.30;;;;;;5076310;28;20032;-84
2022/04/07 00:42:18;;;;;;;14.88;10.52;;;8.30;92.40;;;;;;5076240;28;20074;-84
2022/04/07 00:44:44;;;;;;;14.73;10.60;;;8.40;92.40;;;;;;5077405;28;20423;-84
2022/04/07 00:47:10;;;;;;;16.35;10.93;;;8.30;92.60;;;;;;5076220;28;20130;-84
2022/04/07 00:49:36;;;;;;;15.38;10.50;;;8.40;92.60;;;;;;5059244;28;20399;-84
2022/04/07 00:52:02;;;;;;;14.52;10.32;;;8.30;92.80;;;;;;5075512;28;20032;-84
2022/04/07 00:54:30;;;;;;;14.38;10.50;;;8.30;92.90;;;;;;5075283;28;20426;-85
2022/04/07 00:56:58;;;;;;;13.88;10.02;;;8.30;93.00;;;;;;5075604;28;20029;-84
2022/04/07 00:59:23;;;;;;;15.07;10.77;;;8.40;92.90;;;;;;5075764;28;20558;-84
2022/04/07 01:01:49;;;;;;;17.13;11.55;;;8.30;93.10;;;;;;5075397;28;20029;-84
2022/04/07 01:04:16;;;;;;;19.08;10.80;;;8.20;93.20;;;;;;5075451;28;20029;-84
2022/04/07 01:06:43;;;;;;;15.57;10.77;;;8.20;93.30;;;;;;5076589;28;20553;-83
2022/04/07 01:09:10;;;;;;;16.60;11.60;;;8.20;93.50;;;;;;5076715;28;20380;-84
2022/04/07 01:11:40;;;;;;;17.45;11.88;;;8.20;93.70;;;;;;5074863;28;20045;-84
2022/04/07 01:14:07;;;;;;;16.00;10.67;;;8.20;93.80;;;;;;5077000;28;20096;-84
2022/04/07 01:16:34;;;;;;;17.60;11.27;;;8.10;94.10;;;;;;5077169;28;20299;-84
2022/04/07 01:19:00;;;;;;;16.60;11.38;;;8.20;94.00;;;;;;5077130;28;20116;-84
2022/04/07 01:21:27;;;;;;;16.58;11.60;;;8.20;94.20;;;;;;5075738;28;20023;-84
2022/04/07 01:24:05;;;;;;;21.58;12.52;;;8.20;94.30;;;;;;5076489;28;20029;-84
2022/04/07 01:26:40;;;;;;;19.73;11.85;;;8.20;94.40;;;;;;5075878;28;20028;-84
2022/04/07 01:29:09;;;;;;;18.38;12.07;;;8.20;94.60;;;;;;5073198;28;20028;-84
2022/04/07 01:31:35;;;;;;;16.90;12.53;;;8.20;94.70;;;;;;5059227;28;20024;-84
2022/04/07 01:34:02;;;;;;;18.80;11.57;;;8.30;94.90;;;;;;5075146;28;20159;-84
2022/04/07 01:36:31;;;;;;;17.67;11.70;;;8.20;95.10;;;;;;5075594;28;20103;-84
2022/04/07 01:38:58;;;;;;;17.25;12.23;;;8.20;95.20;;;;;;5074840;28;20024;-84
2022/04/07 01:41:26;;;;;;;16.27;11.85;;;8.10;95.30;;;;;;5076507;28;20035;-85
2022/04/07 01:43:57;;;;;;;19.80;12.60;;;8.20;95.60;;;;;;5075118;28;20032;-85
2022/04/07 01:46:24;;;;;;;18.30;12.15;;;8.20;95.60;;;;;;5075317;28;20062;-85
2022/04/07 01:48:53;;;;;;;16.60;11.13;;;8.30;95.60;;;;;;5075354;28;20020;-84
2022/04/07 01:51:19;;;;;;;16.90;11.70;;;8.30;95.50;;;;;;5075159;28;20028;-88
2022/04/07 01:53:47;;;;;;;18.77;12.05;;;8.20;95.80;;;;;;5075622;28;20036;-85
2022/04/07 01:56:13;;;;;;;15.02;11.50;;;8.20;95.80;;;;;;5075257;28;20034;-84
2022/04/07 01:58:39;;;;;;;18.35;12.52;;;8.10;96.00;;;;;;5074703;28;20064;-84
2022/04/07 02:01:05;;;;;;;13.80;11.55;;;8.10;96.20;;;;;;5075390;28;20462;-84
2022/04/07 02:03:31;;;;;;;19.95;12.52;;;8.10;96.40;;;;;;5074901;28;20111;-84
2022/04/07 02:06:10;;;;;;;17.58;11.85;;;8.10;96.50;;;;;;5074720;28;20056;-84
2022/04/07 02:08:36;;;;;;;16.70;12.13;;;8.10;96.50;;;;;;5058336;28;20364;-89
2022/04/07 02:11:01;;;;;;;21.60;13.07;;;8.10;96.70;;;;;;5074262;28;20049;-85
2022/04/07 02:13:27;;;;;;;20.67;13.05;;;8.20;96.80;;;;;;5074808;28;20027;-84
2022/04/07 02:15:52;;;;;;;20.08;13.23;;;8.10;96.80;;;;;;5075783;28;20020;-86
2022/04/07 02:18:19;;;;;;;20.10;13.27;;;8.10;97.10;;;;;;5074677;28;20024;-85
2022/04/07 02:20:45;;;;;;;16.88;12.40;;;8.10;97.20;;;;;;5073894;28;20448;-84
2022/04/07 02:23:10;;;;;;;19.50;13.55;;;8.10;97.30;;;;;;5074171;28;20028;-84
2022/04/07 02:25:36;;;;;;;20.08;14.32;;;8.10;97.30;;;;;;5074224;28;20425;-84
2022/04/07 02:28:01;;;;;;;19.50;13.95;;;8.00;97.50;;;;;;5075344;28;20029;-85
2022/04/07 02:30:27;;;;;;;19.27;14.60;;;8.00;97.60;;;;;;5075706;28;20029;-85
2022/04/07 02:32:54;;;;;;;21.13;14.38;;;8.10;98.00;;;;;;5075656;28;20020;-84
2022/04/07 02:35:20;;;;;;;22.45;14.30;;;8.10;97.70;;;;;;5075238;28;20031;-84
2022/04/07 02:37:45;;;;;;;20.70;14.50;;;8.00;97.80;;;;;;5074124;28;20374;-85
2022/04/07 02:40:12;;;;;;;21.08;14.30;;;8.00;97.90;;;;;;5075122;28;20029;-84
2022/04/07 02:42:38;;;;;;;20.27;13.52;;;8.00;98.00;;;;;;5074006;28;20032;-84
2022/04/07 02:45:04;;;;;;;21.05;14.05;;;7.90;98.10;;;;;;5073874;28;20032;-84
2022/04/07 02:47:31;;;;;;;19.15;14.30;;;8.00;98.30;;;;;;5075284;28;20036;-84
2022/04/07 02:49:57;;;;;;;24.92;14.15;;;7.90;98.30;;;;;;5074207;28;20032;-85
2022/04/07 02:52:24;;;;;;;17.83;13.18;;;7.90;98.40;;;;;;5074799;28;20029;-84
2022/04/07 02:54:49;;;;;;;21.83;14.63;;;7.90;98.50;;;;;;5072951;28;20021;-84
2022/04/07 02:57:22;;;;;;;18.52;14.40;;;7.90;98.50;;;;;;5075393;28;20486;-84
2022/04/07 02:59:48;;;;;;;20.17;14.32;;;7.90;98.60;;;;;;5074831;28;20074;-84
2022/04/07 03:02:15;;;;;;;18.95;13.63;;;7.90;98.80;;;;;;5073387;28;20032;-84
2022/04/07 03:04:40;;;;;;;21.25;14.43;;;7.80;98.90;;;;;;5073493;28;20030;-84
2022/04/07 03:07:06;;;;;;;22.35;14.85;;;7.80;99.00;;;;;;5057187;28;20107;-84
2022/04/07 03:09:33;;;;;;;19.15;14.30;;;7.80;99.00;;;;;;5074310;28;20383;-84
2022/04/07 03:12:00;;;;;;;20.70;15.13;;;7.80;99.20;;;;;;5074261;28;20053;-84
2022/04/07 03:14:27;;;;;;;18.95;13.93;;;7.70;99.20;;;;;;5073801;28;20024;-85
2022/04/07 03:16:53;;;;;;;23.67;16.10;;;7.70;99.30;;;;;;5074565;28;20107;-84
2022/04/07 03:19:19;;;;;;;20.25;14.90;;;7.70;99.60;;;;;;5074687;28;20032;-85
2022/04/07 03:21:46;;;;;;;23.02;15.65;;;7.70;99.40;;;;;;5084123;28;20028;-84
2022/04/07 03:24:13;;;;;;;22.95;15.45;;;7.70;99.50;;;;;;5073294;28;20493;-85
2022/04/07 03:26:39;;;;;;;22.60;16.10;;;7.70;99.80;;;;;;5073146;28;20066;-88
2022/04/07 03:29:05;;;;;;;32.42;18.63;;;7.70;99.50;;;;;;5072783;28;20481;-88
2022/04/07 03:31:31;;;;;;;30.67;17.85;;;7.70;99.70;;;;;;5075323;28;20031;-85
2022/04/07 03:33:57;;;;;;;31.00;18.67;;;7.70;99.90;;;;;;5073098;28;20024;-85
2022/04/07 03:36:22;;;;;;;30.00;18.77;;;7.70;99.80;;;;;;5073159;28;20432;-85
2022/04/07 03:38:51;;;;;;;24.33;16.83;;;7.70;99.80;;;;;;5073165;28;20115;-85
2022/04/07 03:41:17;;;;;;;25.85;16.20;;;7.60;99.90;;;;;;5083364;28;20032;-85
2022/04/07 03:43:43;;;;;;;26.80;16.38;;;7.60;99.90;;;;;;5094297;28;20116;-85
2022/04/07 03:46:09;;;;;;;23.73;15.80;;;7.60;99.90;;;;;;5083532;28;20067;-87
2022/04/07 03:48:35;;;;;;;23.67;15.63;;;7.60;99.90;;;;;;5072942;28;20177;-85
2022/04/07 03:51:03;;;;;;;24.17;16.27;;;7.60;99.90;;;;;;5072899;28;20036;-87
2022/04/07 03:53:29;;;;;;;23.23;15.65;;;7.60;99.90;;;;;;5078412;28;20028;-86
2022/04/07 03:55:54;;;;;;;22.70;16.58;;;7.50;99.90;;;;;;5093320;28;20016;-85
2022/04/07 03:58:20;;;;;;;25.42;17.25;;;7.60;99.90;;;;;;5076475;28;20035;-85
2022/04/07 04:00:46;;;;;;;25.33;16.95;;;7.60;99.90;;;;;;5070005;28;20062;-85
2022/04/07 04:03:11;;;;;;;25.05;16.30;;;7.50;99.90;;;;;;5072679;28;20032;-85
2022/04/07 04:05:37;;;;;;;23.20;15.98;;;7.50;99.90;;;;;;5077494;28;20031;-85
2022/04/07 04:08:03;;;;;;;24.45;15.35;;;7.50;99.90;;;;;;5088216;28;20116;-88
2022/04/07 04:10:29;;;;;;;24.73;16.73;;;7.50;99.90;;;;;;5076367;28;20087;-85
2022/04/07 04:12:55;;;;;;;22.58;16.40;;;7.60;99.90;;;;;;5092802;28;20144;-85
2022/04/07 04:15:20;;;;;;;23.63;15.80;;;7.60;99.90;;;;;;5091212;28;21439;-86
2022/04/07 04:17:46;;;;;;;25.17;16.23;;;7.60;99.90;;;;;;5057755;28;20032;-85
2022/04/07 04:20:13;;;;;;;29.42;17.67;;;7.60;99.90;;;;;;5072862;28;20024;-85
2022/04/07 04:22:39;;;;;;;25.50;16.80;;;7.70;99.90;;;;;;5056305;28;20438;-85
2022/04/07 04:25:07;;;;;;;24.83;16.02;;;7.60;99.90;;;;;;5072997;28;20029;-85
2022/04/07 04:27:33;;;;;;;25.85;16.42;;;7.50;99.90;;;;;;5091884;28;20040;-85
2022/04/07 04:29:59;;;;;;;27.83;17.30;;;7.60;99.90;;;;;;5094162;28;20024;-85
2022/04/07 04:32:26;;;;;;;25.73;16.90;;;7.60;99.90;;;;;;5080475;28;20025;-88
2022/04/07 04:34:53;;;;;;;28.38;16.85;;;7.70;99.90;;;;;;5073703;28;20020;-86
2022/04/07 04:37:21;;;;;;;25.45;17.15;;;7.60;99.90;;;;;;5072722;28;20024;-87
2022/04/07 04:39:47;;;;;;;23.13;16.42;;;7.60;99.90;;;;;;5057496;28;20024;-87
2022/04/07 04:42:15;;;;;;;24.98;16.52;;;7.60;99.90;;;;;;5073815;28;20455;-85
2022/04/07 04:44:40;;;;;;;24.75;15.57;;;7.70;99.90;;;;;;5073260;28;20104;-86
2022/04/07 04:47:06;;;;;;;23.85;16.30;;;7.70;99.90;;;;;;5064995;28;20119;-86
2022/04/07 04:49:32;;;;;;;23.23;16.10;;;7.70;99.90;;;;;;5083134;28;20024;-85
2022/04/07 04:51:58;;;;;;;26.63;16.30;;;7.80;99.90;;;;;;5085256;28;20025;-86
2022/04/07 04:54:24;;;;;;;26.58;15.90;;;7.80;99.90;;;;;;5093831;28;20024;-86
2022/04/07 04:56:49;;;;;;;26.90;16.10;;;7.80;99.90;;;;;;5075871;28;20471;-89
2022/04/07 04:59:16;;;;;;;23.88;16.35;;;7.80;99.90;;;;;;5092831;28;20020;-85
2022/04/07 05:01:41;;;;;;;25.23;15.90;;;7.90;99.90;;;;;;5092772;28;20131;-87
2022/04/07 05:04:08;;;;;;;23.30;16.05;;;7.90;99.90;;;;;;5083412;28;20107;-86
2022/04/07 05:06:35;;;;;;;24.73;16.70;;;7.80;99.90;;;;;;5067315;28;20020;-86
2022/04/07 05:09:00;;;;;;;25.63;15.88;;;7.90;99.90;;;;;;5081617;28;20029;-88
2022/04/07 05:11:27;;;;;;;26.58;14.85;;;7.90;99.90;;;;;;5071920;28;20055;-89
2022/04/07 05:13:55;;;;;;;24.58;15.57;;;8.00;99.90;;;;;;5087231;28;20477;-89
2022/04/07 05:16:21;;;;;;;23.58;16.15;;;8.00;99.90;;;;;;5084535;28;20025;-85
2022/04/07 05:18:49;;;;;;;23.42;16.10;;;7.90;99.90;;;;;;5084560;28;20046;-87
2022/04/07 05:21:16;;;;;;;24.42;16.38;;;7.90;99.90;;;;;;5075640;28;20023;-87
2022/04/07 05:23:42;;;;;;;49.78;27.27;;;7.90;99.90;;;;;;5059085;28;20032;-86
2022/04/07 05:26:09;;;;;;;27.58;16.92;;;7.90;99.90;;;;;;5077287;28;20024;-87
2022/04/07 05:28:36;;;;;;;24.60;16.42;;;7.90;99.90;;;;;;5075157;28;20051;-88
2022/04/07 05:31:01;;;;;;;26.65;17.77;;;7.70;99.90;;;;;;5075338;28;20032;-85
2022/04/07 05:33:27;;;;;;;24.85;16.83;;;7.70;99.90;;;;;;5075413;28;20108;-87
2022/04/07 05:35:52;;;;;;;26.77;16.58;;;7.80;99.90;;;;;;5058549;28;20055;-87
2022/04/07 05:38:18;;;;;;;25.67;16.92;;;7.70;99.90;;;;;;5074916;28;20048;-87
2022/04/07 05:40:44;;;;;;;26.33;16.35;;;7.70;99.90;;;;;;5058500;28;20434;-87
2022/04/07 05:43:10;;;;;;;28.73;16.17;;;7.60;99.90;;;;;;5074905;28;20024;-87
2022/04/07 05:45:39;;;;;;;24.05;16.48;;;7.50;99.90;;;;;;5073851;28;20028;-87
2022/04/07 05:48:06;;;;;;;30.15;17.58;;;7.50;99.90;;;;;;5074319;28;20107;-87
2022/04/07 05:50:32;;;;;;;26.65;18.10;;;7.50;99.90;;;;;;5056640;28;20028;-88
2022/04/07 05:52:58;;;;;;;32.75;17.77;;;7.40;99.90;;;;;;5074111;28;20497;-87
2022/04/07 05:55:23;;;;;;;26.58;17.05;;;7.50;99.90;;;;;;5072978;28;20024;-87
2022/04/07 05:57:49;;;;;;;26.13;16.70;;;7.50;99.90;;;;;;5073265;28;20132;-88
2022/04/07 06:00:19;;;;;;;25.45;16.58;;;7.60;99.90;;;;;;5072926;28;20037;-87
2022/04/07 06:02:47;;;;;;;30.23;17.55;;;7.70;99.90;;;;;;5058537;28;20043;-87
2022/04/07 06:05:18;;;;;;;27.10;17.30;;;7.80;99.90;;;;;;5076060;28;20508;-89
2022/04/07 06:07:44;;;;;;;30.38;17.38;;;8.00;99.90;;;;;;5075049;28;20031;-87
2022/04/07 06:10:10;;;;;;;28.38;17.65;;;8.20;99.90;;;;;;5074746;28;20048;-87
2022/04/07 06:12:40;;;;;;;27.45;17.13;;;8.30;99.90;;;;;;5074513;28;20039;-90
2022/04/07 06:15:06;;;;;;;25.25;15.93;;;8.50;99.90;;;;;;5074998;28;20031;-87
2022/04/07 06:17:33;;;;;;;26.30;15.77;;;8.60;99.90;;;;;;5075953;28;20028;-87
2022/04/07 06:20:02;;;;;;;24.90;16.10;;;8.70;99.90;;;;;;5058171;28;20025;-87
2022/04/07 06:22:27;;;;;;;21.35;14.98;;;8.70;99.90;;;;;;5074883;28;20023;-87
2022/04/07 06:24:53;;;;;;;22.70;15.55;;;8.80;99.90;;;;;;5058103;28;20028;-87
2022/04/07 06:27:19;;;;;;;24.80;16.20;;;8.90;99.50;;;;;;5074497;28;20032;-87
2022/04/07 06:29:45;;;;;;;25.48;15.48;;;9.00;99.50;;;;;;5074785;28;20028;-88
2022/04/07 06:32:11;;;;;;;23.70;15.20;;;9.30;98.80;;;;;;5075358;28;20475;-87
2022/04/07 06:34:39;;;;;;;24.35;15.63;;;9.40;98.40;;;;;;5074103;28;20077;-88
2022/04/07 06:37:06;;;;;;;22.15;15.07;;;9.60;98.40;;;;;;5074566;28;20493;-87
2022/04/07 06:39:41;;;;;;;23.80;15.15;;;9.70;97.90;;;;;;5074900;28;20036;-87
2022/04/07 06:42:07;;;;;;;24.92;14.77;;;9.80;97.70;;;;;;5057847;28;20033;-86
2022/04/07 06:44:33;;;;;;;20.17;14.48;;;9.90;97.50;;;;;;5074024;28;20035;-89
2022/04/07 06:46:58;;;;;;;22.88;14.23;;;9.90;97.00;;;;;;5074248;28;20459;-87
2022/04/07 06:49:24;;;;;;;25.58;13.98;;;10.00;96.70;;;;;;5057881;28;20032;-87
2022/04/07 06:51:49;;;;;;;26.70;16.27;;;9.90;96.50;;;;;;5075441;28;20103;-86
2022/04/07 06:54:15;;;;;;;21.02;14.70;;;9.90;96.60;;;;;;5073992;28;20116;-87
2022/04/07 06:56:40;;;;;;;23.20;14.88;;;9.90;96.30;;;;;;5074385;28;20020;-87
2022/04/07 06:59:08;;;;;;;22.02;14.85;;;9.90;96.10;;;;;;5075387;28;20380;-87
2022/04/07 07:01:34;;;;;;;22.63;13.75;;;9.90;95.80;;;;;;5073880;28;20098;-87
2022/04/07 07:04:00;;;;;;;23.65;13.57;;;10.00;95.50;;;;;;5074297;28;20029;-86
2022/04/07 07:06:25;;;;;;;21.13;12.85;;;10.00;95.60;;;;;;5073934;28;20111;-86
2022/04/07 07:08:51;;;;;;;18.42;13.93;;;10.00;95.80;;;;;;5073625;28;20029;-86
2022/04/07 07:11:19;;;;;;;23.20;14.23;;;10.00;95.90;;;;;;5056899;28;20502;-87
2022/04/07 07:13:44;;;;;;;19.77;13.88;;;10.10;95.60;;;;;;5057592;28;20041;-87
2022/04/07 07:16:10;;;;;;;18.08;12.98;;;10.20;95.20;;;;;;5073915;28;20025;-88
2022/04/07 07:18:38;;;;;;;23.80;13.40;;;10.30;95.20;;;;;;5074994;28;20103;-86
2022/04/07 07:21:04;;;;;;;20.10;13.45;;;10.40;95.00;;;;;;5074861;28;20031;-88
2022/04/07 07:23:32;;;;;;;19.15;12.98;;;10.60;95.10;;;;;;5074709;28;20020;-87
2022/04/07 07:25:57;;;;;;;21.25;12.30;;;10.80;94.50;;;;;;5073679;28;20035;-87
2022/04/07 07:28:23;;;;;;;18.33;11.90;;;11.00;94.00;;;;;;5074866;28;20025;-88
2022/04/07 07:30:49;;;;;;;18.83;11.48;;;11.30;93.10;;;;;;5073623;28;20050;-88
2022/04/07 07:33:15;;;;;;;15.48;11.43;;;11.60;92.10;;;;;;5073621;28;20025;-88
2022/04/07 07:35:43;;;;;;;17.25;11.48;;;11.70;91.40;;;;;;5073862;28;20498;-87
2022/04/07 07:38:09;;;;;;;16.33;10.00;;;12.00;90.20;;;;;;5074655;28;20020;-87
2022/04/07 07:40:34;;;;;;;15.75;10.75;;;12.10;90.00;;;;;;5074150;28;20058;-87
2022/04/07 07:43:01;;;;;;;15.20;10.80;;;12.20;90.00;;;;;;5073412;28;20383;-88
2022/04/07 07:45:28;;;;;;;24.30;10.75;;;12.30;89.70;;;;;;5073553;28;20024;-87
2022/04/07 07:47:54;;;;;;;14.35;10.23;;;12.40;87.20;;;;;;5073516;28;20229;-87
2022/04/07 07:50:21;;;;;;;15.25;10.82;;;12.60;87.30;;;;;;5072900;28;20136;-87
2022/04/07 07:52:47;;;;;;;15.63;10.52;;;12.70;86.40;;;;;;5073349;28;20021;-88
2022/04/07 07:55:13;;;;;;;15.43;10.00;;;12.80;85.60;;;;;;5073321;28;20067;-87
2022/04/07 07:57:38;;;;;;;12.73;9.52;;;13.00;83.70;;;;;;5073551;28;20028;-88
2022/04/07 08:00:07;;;;;;;14.25;8.80;;;13.20;83.60;;;;;;5073375;28;20025;-88
2022/04/07 08:02:37;;;;;;;17.42;9.75;;;13.30;81.40;;;;;;5074458;28;20052;-89
2022/04/07 08:05:04;;;;;;;12.43;9.02;;;13.50;79.60;;;;;;5073146;28;20024;-89
2022/04/07 08:07:29;;;;;;;16.55;9.70;;;13.50;79.20;;;;;;5073840;28;20043;-88
2022/04/07 08:09:59;;;;;;;13.20;8.75;;;13.60;78.70;;;;;;5072688;28;20025;-87
2022/04/07 08:12:25;;;;;;;12.77;8.73;;;13.70;77.90;;;;;;5073020;28;20066;-92
2022/04/07 08:14:51;;;;;;;15.50;8.65;;;13.90;77.40;;;;;;5073282;28;20020;-88
2022/04/07 08:17:18;;;;;;;13.52;7.97;;;14.00;76.00;;;;;;5073353;28;20077;-88
2022/04/07 08:19:43;;;;;;;12.88;8.82;;;14.10;76.30;;;;;;5074328;28;20016;-88
2022/04/07 08:22:09;;;;;;;15.55;8.77;;;14.20;74.70;;;;;;5073247;28;20387;-88
2022/04/07 08:24:35;;;;;;;14.15;8.50;;;14.30;73.50;;;;;;5073213;28;20032;-91
2022/04/07 08:27:05;;;;;;;10.88;8.20;;;14.50;72.20;;;;;;5073049;28;20021;-88
2022/04/07 08:29:30;;;;;;;;;;;14.60;72.50;;;;;;5073537;28;20024;-88
2022/04/07 08:31:56;;;;;;;12.20;8.75;;;14.60;72.90;;;;;;5072945;28;19909;-89
2022/04/07 08:34:22;;;;;;;13.77;8.75;;;14.70;72.20;;;;;;5074011;28;20023;-88
2022/04/07 08:36:48;;;;;;;13.52;8.25;;;14.80;71.00;;;;;;5074195;28;20021;-90
2022/04/07 08:39:14;;;;;;;11.70;8.38;;;14.90;70.70;;;;;;5072914;28;20378;-89
2022/04/07 08:41:42;;;;;;;13.15;8.70;;;14.90;70.40;;;;;;5073015;28;20029;-89
2022/04/07 08:44:07;;;;;;;13.80;8.45;;;15.00;70.30;;;;;;5072839;28;20111;-88
2022/04/07 08:46:34;;;;;;;12.40;8.98;;;15.10;70.00;;;;;;5072993;28;20471;-89
2022/04/07 08:49:02;;;;;;;11.48;8.55;;;15.20;68.40;;;;;;5073100;28;20425;-88
2022/04/07 08:51:29;;;;;;;10.88;8.32;;;15.30;69.20;;;;;;5072955;28;20032;-89
2022/04/07 08:53:54;;;;;;;11.25;8.82;;;15.30;69.30;;;;;;5075566;28;20467;-86
2022/04/07 08:56:21;;;;;;;12.65;8.48;;;15.50;68.10;;;;;;5076803;28;20028;-90
2022/04/07 08:58:47;;;;;;;12.63;8.18;;;15.60;65.70;;;;;;5076908;28;20020;-88
2022/04/07 09:01:13;;;;;;;11.77;8.38;;;15.60;66.70;;;;;;5077688;28;20027;-89
2022/04/07 09:03:39;;;;;;;13.32;7.72;;;15.60;66.70;;;;;;5076245;28;20440;-89
2022/04/07 09:06:05;;;;;;;11.55;8.10;;;15.80;65.90;;;;;;5076796;28;20107;-88
2022/04/07 09:08:36;;;;;;;12.32;7.10;;;15.90;65.40;;;;;;5076390;28;20111;-90
2022/04/07 09:11:05;;;;;;;9.50;7.07;;;15.90;65.10;;;;;;5076070;28;20052;-89
2022/04/07 09:13:32;;;;;;;13.10;7.53;;;16.00;63.80;;;;;;5076450;28;20023;-88
2022/04/07 09:15:59;;;;;;;14.70;7.50;;;16.00;64.20;;;;;;5076408;28;20490;-88
2022/04/07 09:18:25;;;;;;;9.73;6.70;;;16.10;64.00;;;;;;5076403;28;20024;-88
2022/04/07 09:20:51;;;;;;;9.57;6.10;;;16.20;63.50;;;;;;5076371;28;20029;-90
2022/04/07 09:23:17;;;;;;;8.82;6.38;;;16.30;62.70;;;;;;5076325;28;20031;-90
2022/04/07 09:25:49;;;;;;;10.95;6.13;;;16.40;62.20;;;;;;5076226;28;20419;-89
2022/04/07 09:28:28;;;;;;;10.40;6.05;;;16.50;61.10;;;;;;5076467;28;20111;-88
2022/04/07 09:30:59;;;;;;;13.88;5.80;;;16.60;60.90;;;;;;5075950;28;20052;-91
2022/04/07 09:33:27;;;;;;;9.30;5.88;;;16.70;60.00;;;;;;5076240;28;20044;-89
2022/04/07 09:36:01;;;;;;;8.55;6.03;;;16.90;59.00;;;;;;5076261;28;20382;-90
2022/04/07 09:38:30;;;;;;;5.93;5.22;;;16.90;59.40;;;;;;5075935;28;20029;-88
2022/04/07 09:41:03;;;;;;;7.05;5.20;;;17.00;58.20;;;;;;5076905;28;20020;-90
2022/04/07 09:43:28;;;;;;;6.50;5.03;;;17.10;57.60;;;;;;5075877;28;20035;-89
2022/04/07 09:45:55;;;;;;;8.30;4.80;;;17.10;57.50;;;;;;5075801;28;20111;-86
2022/04/07 09:48:22;;;;;;;6.72;4.93;;;17.10;57.50;;;;;;5076633;28;20031;-87
2022/04/07 09:51:23;;;;;;;8.10;5.20;;;17.20;57.20;;;;;;5075746;28;20042;-89
2022/04/07 09:53:54;;;;;;;6.95;4.93;;;17.20;57.50;;;;;;4999372;28;20547;-90
2022/04/07 09:56:20;;;;;;;8.93;4.95;;;17.20;57.70;;;;;;5062882;28;20036;-91
2022/04/07 09:58:47;;;;;;;12.38;5.28;;;17.30;57.20;;;;;;5076756;28;20028;-89
2022/04/07 10:01:13;;;;;;;12.48;4.70;;;17.30;56.60;;;;;;5075424;28;20101;-89
2022/04/07 10:03:40;;;;;;;7.38;4.50;;;17.50;56.00;;;;;;5075083;28;20560;-88
2022/04/07 10:06:07;;;;;;;6.43;4.95;;;17.50;56.60;;;;;;5075850;28;20112;-90
2022/04/07 10:08:34;;;;;;;9.65;4.90;;;17.60;56.30;;;;;;5076452;28;20024;-91
2022/04/07 10:11:02;;;;;;;6.97;4.50;;;17.70;56.20;;;;;;5074986;28;20083;-91
2022/04/07 10:13:29;;;;;;;8.02;5.15;;;17.70;56.50;;;;;;5075233;28;20017;-90
2022/04/07 10:15:57;;;;;;;6.07;4.03;;;17.90;55.40;;;;;;5075416;28;20028;-91
2022/04/07 10:18:28;;;;;;;6.88;4.45;;;17.90;55.70;;;;;;5079036;28;20024;-88
2022/04/07 10:20:58;;;;;;;6.72;3.97;;;18.00;54.50;;;;;;5081849;28;20028;-90
2022/04/07 10:23:43;;;;;;;7.22;4.07;;;18.10;54.30;;;;;;5075270;28;20035;-88
2022/04/07 10:26:11;;;;;;;4.47;4.00;;;18.30;53.40;;;;;;5074803;28;20490;-88
2022/04/07 10:28:36;;;;;;;9.57;4.13;;;18.20;53.80;;;;;;5075559;28;20029;-89
2022/04/07 10:31:15;;;;;;;7.90;3.92;;;18.20;54.00;;;;;;5074825;28;20123;-92
2022/04/07 10:33:41;;;;;;;6.13;3.97;;;18.20;54.10;;;;;;5074848;28;20020;-89
2022/04/07 10:36:35;;;;;;;6.15;4.03;;;18.20;54.40;;;;;;5074811;28;20104;-90
2022/04/07 10:39:00;;;;;;;5.43;3.90;;;18.30;54.20;;;;;;5074655;28;20379;-89
2022/04/07 10:41:38;;;;;;;10.05;3.95;;;18.40;54.20;;;;;;5075912;28;20032;-90
2022/04/07 10:44:13;;;;;;;4.30;3.67;;;18.40;54.00;;;;;;5075815;28;20161;-90
2022/04/07 10:46:38;;;;;;;5.05;3.60;;;18.50;53.30;;;;;;5075745;28;20422;-91
2022/04/07 10:49:09;;;;;;;9.13;4.60;;;18.60;53.70;;;;;;5074452;28;20032;-89
2022/04/07 10:51:42;;;;;;;4.88;4.35;;;18.60;53.70;;;;;;5074416;28;20434;-89
2022/04/07 10:54:09;;;;;;;10.48;4.10;;;18.70;53.00;;;;;;5074484;28;20077;-90
2022/04/07 10:56:35;;;;;;;8.23;4.30;;;18.70;53.10;;;;;;5074533;28;20021;-88
2022/04/07 10:59:21;;;;;;;4.60;4.10;;;18.70;53.50;;;;;;5074337;28;20382;-89
2022/04/07 11:02:00;;;;;;;4.80;3.90;;;18.70;53.90;;;;;;5075699;28;20107;-93
2022/04/07 11:04:26;;;;;;;9.55;4.57;;;18.80;53.50;;;;;;5074607;28;20090;-89
2022/04/07 11:07:16;;;;;;;6.82;3.80;;;18.90;52.80;;;;;;5074300;28;20025;-89
2022/04/07 11:09:47;;;;;;;4.40;3.72;;;18.90;53.20;;;;;;5074103;28;20033;-87
2022/04/07 11:12:17;;;;;;;6.60;3.63;;;18.90;53.10;;;;;;5073869;28;20036;-88
2022/04/07 11:14:47;;;;;;;3.70;3.28;;;18.90;52.90;;;;;;5074884;28;20036;-89
2022/04/07 11:17:15;;;;;;;;;;;18.90;53.20;;;;;;5073831;28;20082;-88
2022/04/07 11:20:05;;;;;;;5.30;3.63;;;18.90;52.90;;;;;;5073791;28;19910;-88
2022/04/07 11:22:55;;;;;;;3.95;3.42;;;19.00;53.00;;;;;;5074309;28;20024;-88
2022/04/07 11:25:22;;;;;;;8.00;3.78;;;19.10;52.90;;;;;;5075186;28;20048;-88
2022/04/07 11:28:14;;;;;;;4.50;3.13;;;19.20;52.80;;;;;;5073931;28;20067;-87
2022/04/07 11:30:46;;;;;;;4.00;3.20;;;19.30;51.50;;;;;;5073487;28;20082;-91
2022/04/07 11:33:27;;;;;;;7.18;3.28;;;19.40;51.60;;;;;;5073677;28;20024;-89
2022/04/07 11:36:11;;;;;;;3.30;3.00;;;19.30;52.00;;;;;;5073767;28;20020;-91
2022/04/07 11:38:45;;;;;;;5.53;3.10;;;19.30;51.90;;;;;;5073843;28;20028;-90
2022/04/07 11:41:18;;;;;;;5.53;3.45;;;19.40;51.40;;;;;;5074070;28;20028;-92
2022/04/07 11:43:46;;;;;;;4.38;2.85;;;19.30;52.00;;;;;;5073735;28;20032;-90
2022/04/07 11:46:24;;;;;;;3.25;2.63;;;19.30;51.80;;;;;;5073453;28;20021;-90
2022/04/07 11:48:51;;;;;;;8.52;3.17;;;19.40;50.90;;;;;;5073491;28;20025;-90
2022/04/07 11:51:17;;;;;;;6.85;3.00;;;19.40;51.60;;;;;;5074557;28;20024;-89
2022/04/07 11:53:51;;;;;;;4.60;2.83;;;19.40;51.60;;;;;;5073393;28;20032;-91
2022/04/07 11:56:28;;;;;;;2.97;2.53;;;19.50;51.30;;;;;;5073396;28;20028;-90
2022/04/07 11:59:03;;;;;;;6.28;3.10;;;19.50;51.60;;;;;;5073725;28;20054;-91
2022/04/07 12:01:29;;;;;;;7.80;2.80;;;19.60;50.90;;;;;;5067937;28;20028;-89
2022/04/07 12:04:00;;;;;;;3.95;2.72;;;19.70;50.80;;;;;;5074554;28;20479;-91
2022/04/07 12:06:34;;;;;;;5.20;2.72;;;19.70;51.10;;;;;;5073304;28;20032;-91
2022/04/07 12:09:02;;;;;;;2.60;2.40;;;19.70;51.40;;;;;;5073375;28;20032;-91
2022/04/07 12:11:30;;;;;;;4.30;3.13;;;19.70;51.10;;;;;;5073077;28;20044;-90
2022/04/07 12:13:57;;;;;;;4.90;2.90;;;19.70;51.00;;;;;;5073261;28;20020;-90
2022/04/07 12:16:24;;;;;;;4.65;2.70;;;19.80;51.60;;;;;;5073329;28;20032;-90
2022/04/07 12:19:04;;;;;;;6.32;2.78;;;19.90;50.70;;;;;;5074458;28;20020;-90
2022/04/07 12:21:56;;;;;;;5.20;2.95;;;20.20;49.00;;;;;;5073401;28;20387;-90
2022/04/07 12:24:23;;;;;;;5.75;2.83;;;20.80;49.10;;;;;;5073129;28;20031;-89
2022/04/07 12:26:50;;;;;;;8.05;3.38;;;21.80;48.30;;;;;;5074187;28;20029;-90
2022/04/07 12:29:36;;;;;;;4.22;2.50;;;23.10;45.50;;;;;;5077493;28;20391;-90
2022/04/07 12:32:07;;;;;;;3.35;2.50;;;24.40;44.00;;;;;;5076976;28;20037;-90
2022/04/07 12:34:54;;;;;;;3.45;2.50;;;25.40;43.20;;;;;;5077083;28;20017;-93
2022/04/07 12:37:33;;;;;;;4.95;2.80;;;26.40;42.40;;;;;;5077064;28;20020;-91
2022/04/07 12:40:00;;;;;;;7.45;2.85;;;27.40;41.70;;;;;;5077003;28;20021;-89
2022/04/07 12:42:26;;;;;;;21.27;3.58;;;28.10;41.10;;;;;;5077191;28;20032;-94